sensor_id;sensor_type;location;lat;lon;timestamp;P1;durP1;ratioP1;P2;durP2;ratioP2
1715;SDS011;855;48.824;9.220;2023-03-01T00:01:27;20.23;;;7.23;;
1715;SDS011;855;48.824;9.220;2023-03-01T00:03:55;19.83;;;7.90;;
1715;SDS011;855;48.824;9.220;2023-03-01T00:06:22;24.20;;;9.93;;
1715;SDS011;855;48.824;9.220;2023-03-01T00:08:50;21.57;;;7.20;;
1715;SDS011;855;48.824;9.220;2023-03-01T00:11:20;15.67;;;6.47;;
1715;SDS011;855;48.824;9.220;2023-03-01T00:13:49;16.80;;;7.33;;
1715;SDS011;855;48.824;9.220;2023-03-01T00:16:18;17.97;;;7.00;;
1715;SDS011;855;48.824;9.220;2023-03-01T00:18:46;12.80;;;6.97;;
1715;SDS011;855;48.824;9.220;2023-03-01T00:21:13;19.27;;;7.47;;
1715;SDS011;855;48.824;9.220;2023-03-01T00:23:40;15.20;;;7.20;;
1715;SDS011;855;48.824;9.220;2023-03-01T00:26:07;22.03;;;8.60;;
1715;SDS011;855;48.824;9.220;2023-03-01T00:28:37;23.47;;;8.50;;
1715;SDS011;855;48.824;9.220;2023-03-01T00:31:04;19.90;;;8.63;;
1715;SDS011;855;48.824;9.220;2023-03-01T00:33:31;20.47;;;7.83;;
1715;SDS011;855;48.824;9.220;2023-03-01T00:35:58;16.27;;;7.40;;
1715;SDS011;855;48.824;9.220;2023-03-01T00:38:25;16.93;;;7.67;;
1715;SDS011;855;48.824;9.220;2023-03-01T00:40:52;16.97;;;7.60;;
1715;SDS011;855;48.824;9.220;2023-03-01T00:43:19;24.33;;;8.47;;
1715;SDS011;855;48.824;9.220;2023-03-01T00:45:47;18.40;;;8.20;;
1715;SDS011;855;48.824;9.220;2023-03-01T00:48:14;21.23;;;9.00;;
1715;SDS011;855;48.824;9.220;2023-03-01T00:50:41;20.70;;;8.63;;
1715;SDS011;855;48.824;9.220;2023-03-01T00:53:08;32.73;;;8.67;;
1715;SDS011;855;48.824;9.220;2023-03-01T00:55:35;16.33;;;8.20;;
1715;SDS011;855;48.824;9.220;2023-03-01T00:58:02;18.87;;;8.00;;
1715;SDS011;855;48.824;9.220;2023-03-01T01:00:29;18.90;;;9.50;;
1715;SDS011;855;48.824;9.220;2023-03-01T01:02:57;18.27;;;7.30;;
1715;SDS011;855;48.824;9.220;2023-03-01T01:05:24;21.30;;;9.00;;
1715;SDS011;855;48.824;9.220;2023-03-01T01:07:51;17.47;;;6.00;;
1715;SDS011;855;48.824;9.220;2023-03-01T01:10:18;17.57;;;7.60;;
1715;SDS011;855;48.824;9.220;2023-03-01T01:12:45;16.90;;;7.33;;
1715;SDS011;855;48.824;9.220;2023-03-01T01:15:12;27.80;;;9.90;;
1715;SDS011;855;48.824;9.220;2023-03-01T01:17:41;23.13;;;7.93;;
1715;SDS011;855;48.824;9.220;2023-03-01T01:20:10;33.77;;;8.10;;
1715;SDS011;855;48.824;9.220;2023-03-01T01:22:38;24.13;;;8.27;;
1715;SDS011;855;48.824;9.220;2023-03-01T01:25:05;23.63;;;9.40;;
1715;SDS011;855;48.824;9.220;2023-03-01T01:27:32;21.77;;;7.90;;
1715;SDS011;855;48.824;9.220;2023-03-01T01:29:59;16.93;;;8.23;;
1715;SDS011;855;48.824;9.220;2023-03-01T01:32:26;21.47;;;8.53;;
1715;SDS011;855;48.824;9.220;2023-03-01T01:34:53;26.43;;;9.00;;
1715;SDS011;855;48.824;9.220;2023-03-01T01:37:21;23.70;;;8.37;;
1715;SDS011;855;48.824;9.220;2023-03-01T01:39:56;17.70;;;8.20;;
1715;SDS011;855;48.824;9.220;2023-03-01T01:42:22;22.00;;;9.00;;
1715;SDS011;855;48.824;9.220;2023-03-01T01:47:49;22.27;;;8.50;;
1715;SDS011;855;48.824;9.220;2023-03-01T01:50:17;15.87;;;7.10;;
1715;SDS011;855;48.824;9.220;2023-03-01T01:52:46;26.50;;;8.57;;
1715;SDS011;855;48.824;9.220;2023-03-01T01:55:16;14.33;;;6.57;;
1715;SDS011;855;48.824;9.220;2023-03-01T01:57:47;16.00;;;7.80;;
1715;SDS011;855;48.824;9.220;2023-03-01T02:00:18;20.47;;;8.73;;
1715;SDS011;855;48.824;9.220;2023-03-01T02:02:46;23.10;;;8.60;;
1715;SDS011;855;48.824;9.220;2023-03-01T02:05:17;19.93;;;7.40;;
1715;SDS011;855;48.824;9.220;2023-03-01T02:07:51;23.17;;;9.87;;
1715;SDS011;855;48.824;9.220;2023-03-01T02:10:18;15.40;;;6.60;;
1715;SDS011;855;48.824;9.220;2023-03-01T02:12:46;26.93;;;11.80;;
1715;SDS011;855;48.824;9.220;2023-03-01T02:15:13;28.90;;;7.97;;
1715;SDS011;855;48.824;9.220;2023-03-01T02:17:40;22.30;;;8.67;;
1715;SDS011;855;48.824;9.220;2023-03-01T02:20:10;15.63;;;7.50;;
1715;SDS011;855;48.824;9.220;2023-03-01T02:22:45;18.20;;;7.83;;
1715;SDS011;855;48.824;9.220;2023-03-01T02:25:21;24.67;;;9.07;;
1715;SDS011;855;48.824;9.220;2023-03-01T02:27:53;21.23;;;9.67;;
1715;SDS011;855;48.824;9.220;2023-03-01T02:30:26;23.50;;;8.70;;
1715;SDS011;855;48.824;9.220;2023-03-01T02:32:54;31.63;;;9.40;;
1715;SDS011;855;48.824;9.220;2023-03-01T02:35:27;19.10;;;7.63;;
1715;SDS011;855;48.824;9.220;2023-03-01T02:37:57;16.27;;;6.67;;
1715;SDS011;855;48.824;9.220;2023-03-01T02:40:26;17.83;;;7.80;;
1715;SDS011;855;48.824;9.220;2023-03-01T02:42:56;23.73;;;7.83;;
1715;SDS011;855;48.824;9.220;2023-03-01T02:45:24;24.00;;;7.57;;
1715;SDS011;855;48.824;9.220;2023-03-01T02:47:53;25.80;;;11.40;;
1715;SDS011;855;48.824;9.220;2023-03-01T02:50:23;21.63;;;8.80;;
1715;SDS011;855;48.824;9.220;2023-03-01T02:53:06;16.40;;;7.70;;
1715;SDS011;855;48.824;9.220;2023-03-01T02:55:37;19.80;;;8.47;;
1715;SDS011;855;48.824;9.220;2023-03-01T02:58:04;19.00;;;7.00;;
1715;SDS011;855;48.824;9.220;2023-03-01T03:00:35;28.37;;;9.77;;
1715;SDS011;855;48.824;9.220;2023-03-01T03:03:05;17.63;;;6.30;;
1715;SDS011;855;48.824;9.220;2023-03-01T03:05:33;16.60;;;7.37;;
1715;SDS011;855;48.824;9.220;2023-03-01T03:08:01;16.83;;;7.87;;
1715;SDS011;855;48.824;9.220;2023-03-01T03:10:29;24.23;;;8.20;;
1715;SDS011;855;48.824;9.220;2023-03-01T03:12:58;22.30;;;9.90;;
1715;SDS011;855;48.824;9.220;2023-03-01T03:15:26;20.23;;;9.43;;
1715;SDS011;855;48.824;9.220;2023-03-01T03:17:56;17.60;;;6.97;;
1715;SDS011;855;48.824;9.220;2023-03-01T03:20:25;17.60;;;7.43;;
1715;SDS011;855;48.824;9.220;2023-03-01T03:22:54;15.83;;;8.20;;
1715;SDS011;855;48.824;9.220;2023-03-01T03:25:23;22.37;;;9.70;;
1715;SDS011;855;48.824;9.220;2023-03-01T03:27:50;13.47;;;6.53;;
1715;SDS011;855;48.824;9.220;2023-03-01T03:30:21;16.60;;;7.47;;
1715;SDS011;855;48.824;9.220;2023-03-01T03:32:49;31.53;;;9.67;;
1715;SDS011;855;48.824;9.220;2023-03-01T03:35:20;17.00;;;8.20;;
1715;SDS011;855;48.824;9.220;2023-03-01T03:37:48;20.97;;;8.07;;
1715;SDS011;855;48.824;9.220;2023-03-01T03:40:32;22.33;;;8.57;;
1715;SDS011;855;48.824;9.220;2023-03-01T03:43:00;19.90;;;8.40;;
1715;SDS011;855;48.824;9.220;2023-03-01T03:45:27;17.17;;;8.70;;
1715;SDS011;855;48.824;9.220;2023-03-01T03:47:54;22.53;;;8.17;;
1715;SDS011;855;48.824;9.220;2023-03-01T03:50:22;20.93;;;8.20;;
1715;SDS011;855;48.824;9.220;2023-03-01T03:52:49;22.63;;;7.90;;
1715;SDS011;855;48.824;9.220;2023-03-01T03:55:16;19.60;;;8.33;;
1715;SDS011;855;48.824;9.220;2023-03-01T03:57:44;24.53;;;7.97;;
1715;SDS011;855;48.824;9.220;2023-03-01T04:00:16;25.33;;;9.13;;
1715;SDS011;855;48.824;9.220;2023-03-01T04:02:45;23.35;;;9.35;;
1715;SDS011;855;48.824;9.220;2023-03-01T04:05:14;16.97;;;7.40;;
1715;SDS011;855;48.824;9.220;2023-03-01T04:07:43;20.20;;;10.13;;
1715;SDS011;855;48.824;9.220;2023-03-01T04:10:12;19.17;;;8.47;;
1715;SDS011;855;48.824;9.220;2023-03-01T04:12:41;20.37;;;7.60;;
1715;SDS011;855;48.824;9.220;2023-03-01T04:15:09;45.83;;;9.03;;
1715;SDS011;855;48.824;9.220;2023-03-01T04:17:38;21.70;;;9.13;;
1715;SDS011;855;48.824;9.220;2023-03-01T04:20:07;22.70;;;8.20;;
1715;SDS011;855;48.824;9.220;2023-03-01T04:22:36;25.30;;;9.97;;
1715;SDS011;855;48.824;9.220;2023-03-01T04:25:05;20.87;;;7.30;;
1715;SDS011;855;48.824;9.220;2023-03-01T04:27:33;18.00;;;8.23;;
1715;SDS011;855;48.824;9.220;2023-03-01T04:29:59;19.90;;;9.10;;
1715;SDS011;855;48.824;9.220;2023-03-01T04:32:26;32.13;;;9.47;;
1715;SDS011;855;48.824;9.220;2023-03-01T04:34:53;24.33;;;9.50;;
1715;SDS011;855;48.824;9.220;2023-03-01T04:37:20;25.13;;;9.60;;
1715;SDS011;855;48.824;9.220;2023-03-01T04:39:47;18.30;;;7.87;;
1715;SDS011;855;48.824;9.220;2023-03-01T04:42:15;23.60;;;8.77;;
1715;SDS011;855;48.824;9.220;2023-03-01T04:44:42;18.77;;;7.53;;
1715;SDS011;855;48.824;9.220;2023-03-01T04:47:09;21.27;;;8.87;;
1715;SDS011;855;48.824;9.220;2023-03-01T04:49:36;26.37;;;8.40;;
1715;SDS011;855;48.824;9.220;2023-03-01T04:52:03;23.57;;;10.97;;
1715;SDS011;855;48.824;9.220;2023-03-01T04:54:31;30.57;;;10.00;;
1715;SDS011;855;48.824;9.220;2023-03-01T04:56:58;19.30;;;8.23;;
1715;SDS011;855;48.824;9.220;2023-03-01T04:59:26;19.63;;;8.17;;
1715;SDS011;855;48.824;9.220;2023-03-01T05:01:54;22.63;;;8.87;;
1715;SDS011;855;48.824;9.220;2023-03-01T05:04:22;27.00;;;9.00;;
1715;SDS011;855;48.824;9.220;2023-03-01T05:06:49;23.63;;;9.13;;
1715;SDS011;855;48.824;9.220;2023-03-01T05:09:15;19.50;;;9.60;;
1715;SDS011;855;48.824;9.220;2023-03-01T05:11:42;16.30;;;7.63;;
1715;SDS011;855;48.824;9.220;2023-03-01T05:14:09;23.23;;;8.50;;
1715;SDS011;855;48.824;9.220;2023-03-01T05:16:38;28.23;;;8.27;;
1715;SDS011;855;48.824;9.220;2023-03-01T05:19:04;16.77;;;7.30;;
1715;SDS011;855;48.824;9.220;2023-03-01T05:21:36;14.23;;;6.87;;
1715;SDS011;855;48.824;9.220;2023-03-01T05:24:23;27.70;;;8.67;;
1715;SDS011;855;48.824;9.220;2023-03-01T05:26:50;23.90;;;7.47;;
1715;SDS011;855;48.824;9.220;2023-03-01T05:29:17;20.37;;;7.93;;
1715;SDS011;855;48.824;9.220;2023-03-01T05:31:51;17.53;;;8.10;;
1715;SDS011;855;48.824;9.220;2023-03-01T05:34:19;21.83;;;8.73;;
1715;SDS011;855;48.824;9.220;2023-03-01T05:36:50;14.70;;;7.43;;
1715;SDS011;855;48.824;9.220;2023-03-01T05:39:18;21.23;;;8.47;;
1715;SDS011;855;48.824;9.220;2023-03-01T05:41:47;23.73;;;9.03;;
1715;SDS011;855;48.824;9.220;2023-03-01T05:44:14;19.83;;;7.20;;
1715;SDS011;855;48.824;9.220;2023-03-01T05:46:41;19.00;;;8.23;;
1715;SDS011;855;48.824;9.220;2023-03-01T05:49:09;20.27;;;8.37;;
1715;SDS011;855;48.824;9.220;2023-03-01T05:51:36;21.57;;;8.33;;
1715;SDS011;855;48.824;9.220;2023-03-01T05:54:02;24.57;;;9.50;;
1715;SDS011;855;48.824;9.220;2023-03-01T05:56:32;28.30;;;9.60;;
1715;SDS011;855;48.824;9.220;2023-03-01T05:58:59;16.50;;;6.30;;
1715;SDS011;855;48.824;9.220;2023-03-01T06:01:27;17.73;;;7.53;;
1715;SDS011;855;48.824;9.220;2023-03-01T06:03:54;22.77;;;8.57;;
1715;SDS011;855;48.824;9.220;2023-03-01T06:06:23;18.20;;;7.13;;
1715;SDS011;855;48.824;9.220;2023-03-01T06:08:50;32.90;;;10.00;;
1715;SDS011;855;48.824;9.220;2023-03-01T06:11:16;15.43;;;7.37;;
1715;SDS011;855;48.824;9.220;2023-03-01T06:13:43;14.53;;;7.80;;
1715;SDS011;855;48.824;9.220;2023-03-01T06:16:11;20.47;;;8.13;;
1715;SDS011;855;48.824;9.220;2023-03-01T06:18:38;29.93;;;8.40;;
1715;SDS011;855;48.824;9.220;2023-03-01T06:21:05;18.07;;;8.50;;
1715;SDS011;855;48.824;9.220;2023-03-01T06:23:35;21.70;;;8.60;;
1715;SDS011;855;48.824;9.220;2023-03-01T06:26:04;25.40;;;10.13;;
1715;SDS011;855;48.824;9.220;2023-03-01T06:28:32;14.30;;;7.30;;
1715;SDS011;855;48.824;9.220;2023-03-01T06:30:58;25.43;;;9.73;;
1715;SDS011;855;48.824;9.220;2023-03-01T06:33:25;18.13;;;8.30;;
1715;SDS011;855;48.824;9.220;2023-03-01T06:35:54;29.67;;;9.17;;
1715;SDS011;855;48.824;9.220;2023-03-01T06:38:21;18.40;;;8.07;;
1715;SDS011;855;48.824;9.220;2023-03-01T06:40:52;17.47;;;8.07;;
1715;SDS011;855;48.824;9.220;2023-03-01T06:43:21;26.40;;;9.17;;
1715;SDS011;855;48.824;9.220;2023-03-01T06:45:48;20.20;;;9.10;;
1715;SDS011;855;48.824;9.220;2023-03-01T06:48:15;21.33;;;9.13;;
1715;SDS011;855;48.824;9.220;2023-03-01T06:50:42;24.77;;;8.00;;
1715;SDS011;855;48.824;9.220;2023-03-01T06:53:09;24.77;;;9.33;;
1715;SDS011;855;48.824;9.220;2023-03-01T06:55:35;20.73;;;7.80;;
1715;SDS011;855;48.824;9.220;2023-03-01T06:58:04;18.47;;;7.47;;
1715;SDS011;855;48.824;9.220;2023-03-01T07:00:30;17.47;;;6.97;;
1715;SDS011;855;48.824;9.220;2023-03-01T07:02:58;18.97;;;8.60;;
1715;SDS011;855;48.824;9.220;2023-03-01T07:05:26;16.57;;;8.13;;
1715;SDS011;855;48.824;9.220;2023-03-01T07:07:54;24.00;;;7.93;;
1715;SDS011;855;48.824;9.220;2023-03-01T07:10:21;20.90;;;8.63;;
1715;SDS011;855;48.824;9.220;2023-03-01T07:12:48;19.30;;;8.13;;
1715;SDS011;855;48.824;9.220;2023-03-01T07:15:16;21.37;;;8.40;;
1715;SDS011;855;48.824;9.220;2023-03-01T07:17:43;21.23;;;8.27;;
1715;SDS011;855;48.824;9.220;2023-03-01T07:20:12;18.87;;;8.77;;
1715;SDS011;855;48.824;9.220;2023-03-01T07:22:40;24.60;;;10.30;;
1715;SDS011;855;48.824;9.220;2023-03-01T07:25:08;27.73;;;7.80;;
1715;SDS011;855;48.824;9.220;2023-03-01T07:27:35;15.60;;;7.93;;
1715;SDS011;855;48.824;9.220;2023-03-01T07:30:02;23.63;;;9.40;;
1715;SDS011;855;48.824;9.220;2023-03-01T07:32:31;17.50;;;8.37;;
1715;SDS011;855;48.824;9.220;2023-03-01T07:34:58;50.97;;;9.07;;
1715;SDS011;855;48.824;9.220;2023-03-01T07:37:25;26.90;;;9.10;;
1715;SDS011;855;48.824;9.220;2023-03-01T07:39:51;24.77;;;9.97;;
1715;SDS011;855;48.824;9.220;2023-03-01T07:42:18;20.50;;;10.00;;
1715;SDS011;855;48.824;9.220;2023-03-01T07:44:45;24.70;;;9.20;;
1715;SDS011;855;48.824;9.220;2023-03-01T07:47:12;25.50;;;8.47;;
1715;SDS011;855;48.824;9.220;2023-03-01T07:49:40;27.67;;;9.80;;
1715;SDS011;855;48.824;9.220;2023-03-01T07:52:09;25.00;;;10.07;;
1715;SDS011;855;48.824;9.220;2023-03-01T07:54:37;31.63;;;10.20;;
1715;SDS011;855;48.824;9.220;2023-03-01T07:57:04;18.23;;;8.90;;
1715;SDS011;855;48.824;9.220;2023-03-01T07:59:31;19.47;;;8.03;;
1715;SDS011;855;48.824;9.220;2023-03-01T08:01:58;22.80;;;10.07;;
1715;SDS011;855;48.824;9.220;2023-03-01T08:04:25;17.57;;;7.97;;
1715;SDS011;855;48.824;9.220;2023-03-01T08:06:54;24.47;;;9.50;;
1715;SDS011;855;48.824;9.220;2023-03-01T08:09:21;25.80;;;9.27;;
1715;SDS011;855;48.824;9.220;2023-03-01T08:11:48;27.30;;;8.03;;
1715;SDS011;855;48.824;9.220;2023-03-01T08:14:15;27.00;;;10.67;;
1715;SDS011;855;48.824;9.220;2023-03-01T08:16:42;25.90;;;8.70;;
1715;SDS011;855;48.824;9.220;2023-03-01T08:19:10;24.40;;;9.20;;
1715;SDS011;855;48.824;9.220;2023-03-01T08:21:37;19.53;;;7.73;;
1715;SDS011;855;48.824;9.220;2023-03-01T08:24:06;18.23;;;8.03;;
1715;SDS011;855;48.824;9.220;2023-03-01T08:26:35;22.17;;;9.70;;
1715;SDS011;855;48.824;9.220;2023-03-01T08:29:03;21.23;;;7.90;;
1715;SDS011;855;48.824;9.220;2023-03-01T08:31:31;22.13;;;8.07;;
1715;SDS011;855;48.824;9.220;2023-03-01T08:34:00;24.77;;;8.83;;
1715;SDS011;855;48.824;9.220;2023-03-01T08:36:29;20.37;;;7.27;;
1715;SDS011;855;48.824;9.220;2023-03-01T08:38:57;23.30;;;8.97;;
1715;SDS011;855;48.824;9.220;2023-03-01T08:41:26;22.63;;;7.73;;
1715;SDS011;855;48.824;9.220;2023-03-01T08:43:53;19.17;;;6.97;;
1715;SDS011;855;48.824;9.220;2023-03-01T08:46:23;22.87;;;9.00;;
1715;SDS011;855;48.824;9.220;2023-03-01T08:48:51;10.87;;;5.10;;
1715;SDS011;855;48.824;9.220;2023-03-01T08:51:18;18.37;;;7.43;;
1715;SDS011;855;48.824;9.220;2023-03-01T08:53:46;19.90;;;9.77;;
1715;SDS011;855;48.824;9.220;2023-03-01T08:56:13;21.13;;;8.17;;
1715;SDS011;855;48.824;9.220;2023-03-01T08:58:44;17.63;;;8.10;;
1715;SDS011;855;48.824;9.220;2023-03-01T09:01:13;15.20;;;7.03;;
1715;SDS011;855;48.824;9.220;2023-03-01T09:03:41;15.47;;;6.33;;
1715;SDS011;855;48.824;9.220;2023-03-01T09:06:08;17.57;;;6.50;;
1715;SDS011;855;48.824;9.220;2023-03-01T09:08:36;14.23;;;6.60;;
1715;SDS011;855;48.824;9.220;2023-03-01T09:11:04;21.83;;;7.57;;
1715;SDS011;855;48.824;9.220;2023-03-01T09:13:33;15.63;;;7.03;;
1715;SDS011;855;48.824;9.220;2023-03-01T09:16:02;18.80;;;8.00;;
1715;SDS011;855;48.824;9.220;2023-03-01T09:18:31;16.90;;;7.20;;
1715;SDS011;855;48.824;9.220;2023-03-01T09:21:01;15.17;;;6.30;;
1715;SDS011;855;48.824;9.220;2023-03-01T09:23:32;16.77;;;7.30;;
1715;SDS011;855;48.824;9.220;2023-03-01T09:26:01;25.17;;;8.63;;
1715;SDS011;855;48.824;9.220;2023-03-01T09:28:29;16.30;;;5.40;;
1715;SDS011;855;48.824;9.220;2023-03-01T09:30:57;13.30;;;6.63;;
1715;SDS011;855;48.824;9.220;2023-03-01T09:33:27;14.97;;;7.67;;
1715;SDS011;855;48.824;9.220;2023-03-01T09:35:57;21.20;;;8.67;;
1715;SDS011;855;48.824;9.220;2023-03-01T09:38:24;19.57;;;7.60;;
1715;SDS011;855;48.824;9.220;2023-03-01T09:40:52;12.23;;;6.53;;
1715;SDS011;855;48.824;9.220;2023-03-01T09:43:21;23.97;;;9.63;;
1715;SDS011;855;48.824;9.220;2023-03-01T09:45:52;20.70;;;7.27;;
1715;SDS011;855;48.824;9.220;2023-03-01T09:48:22;13.70;;;6.90;;
1715;SDS011;855;48.824;9.220;2023-03-01T09:50:54;19.30;;;7.27;;
1715;SDS011;855;48.824;9.220;2023-03-01T09:53:23;24.20;;;7.80;;
1715;SDS011;855;48.824;9.220;2023-03-01T09:55:59;12.13;;;6.13;;
1715;SDS011;855;48.824;9.220;2023-03-01T09:58:30;22.67;;;6.73;;
1715;SDS011;855;48.824;9.220;2023-03-01T10:01:08;13.90;;;7.50;;
1715;SDS011;855;48.824;9.220;2023-03-01T10:03:53;17.33;;;6.70;;
1715;SDS011;855;48.824;9.220;2023-03-01T10:06:29;22.30;;;6.90;;
1715;SDS011;855;48.824;9.220;2023-03-01T10:08:57;18.83;;;5.67;;
1715;SDS011;855;48.824;9.220;2023-03-01T10:11:27;14.50;;;6.50;;
1715;SDS011;855;48.824;9.220;2023-03-01T10:13:58;18.80;;;6.90;;
1715;SDS011;855;48.824;9.220;2023-03-01T10:16:33;22.30;;;6.03;;
1715;SDS011;855;48.824;9.220;2023-03-01T10:19:09;15.27;;;4.93;;
1715;SDS011;855;48.824;9.220;2023-03-01T10:21:43;11.70;;;5.93;;
1715;SDS011;855;48.824;9.220;2023-03-01T10:24:12;21.67;;;5.53;;
1715;SDS011;855;48.824;9.220;2023-03-01T10:26:44;18.93;;;7.67;;
1715;SDS011;855;48.824;9.220;2023-03-01T10:29:16;17.13;;;7.37;;
1715;SDS011;855;48.824;9.220;2023-03-01T10:31:46;17.50;;;8.23;;
1715;SDS011;855;48.824;9.220;2023-03-01T10:34:15;22.63;;;5.83;;
1715;SDS011;855;48.824;9.220;2023-03-01T10:36:47;10.30;;;6.13;;
1715;SDS011;855;48.824;9.220;2023-03-01T10:39:17;18.97;;;7.33;;
1715;SDS011;855;48.824;9.220;2023-03-01T10:41:52;15.97;;;7.57;;
1715;SDS011;855;48.824;9.220;2023-03-01T10:44:35;10.90;;;5.67;;
1715;SDS011;855;48.824;9.220;2023-03-01T10:47:12;8.63;;;4.07;;
1715;SDS011;855;48.824;9.220;2023-03-01T10:49:51;14.57;;;6.80;;
1715;SDS011;855;48.824;9.220;2023-03-01T10:52:21;10.67;;;6.70;;
1715;SDS011;855;48.824;9.220;2023-03-01T10:54:51;18.90;;;7.37;;
1715;SDS011;855;48.824;9.220;2023-03-01T10:57:27;13.27;;;6.03;;
1715;SDS011;855;48.824;9.220;2023-03-01T11:00:10;19.07;;;7.80;;
1715;SDS011;855;48.824;9.220;2023-03-01T11:02:45;15.00;;;5.80;;
1715;SDS011;855;48.824;9.220;2023-03-01T11:05:24;13.33;;;6.57;;
1715;SDS011;855;48.824;9.220;2023-03-01T11:07:55;11.80;;;4.80;;
1715;SDS011;855;48.824;9.220;2023-03-01T11:10:23;14.70;;;6.50;;
1715;SDS011;855;48.824;9.220;2023-03-01T11:12:51;12.80;;;5.47;;
1715;SDS011;855;48.824;9.220;2023-03-01T11:15:20;9.10;;;4.90;;
1715;SDS011;855;48.824;9.220;2023-03-01T11:17:49;18.83;;;6.10;;
1715;SDS011;855;48.824;9.220;2023-03-01T11:20:18;9.93;;;5.67;;
1715;SDS011;855;48.824;9.220;2023-03-01T11:22:52;15.03;;;5.77;;
1715;SDS011;855;48.824;9.220;2023-03-01T11:25:24;13.50;;;4.47;;
1715;SDS011;855;48.824;9.220;2023-03-01T11:27:53;10.73;;;4.30;;
1715;SDS011;855;48.824;9.220;2023-03-01T11:30:21;15.47;;;6.10;;
1715;SDS011;855;48.824;9.220;2023-03-01T11:32:54;10.10;;;4.73;;
1715;SDS011;855;48.824;9.220;2023-03-01T11:35:32;12.60;;;5.60;;
1715;SDS011;855;48.824;9.220;2023-03-01T11:38:12;8.47;;;5.03;;
1715;SDS011;855;48.824;9.220;2023-03-01T11:40:44;10.90;;;4.57;;
1715;SDS011;855;48.824;9.220;2023-03-01T11:43:18;14.00;;;5.13;;
1715;SDS011;855;48.824;9.220;2023-03-01T11:45:55;14.17;;;5.87;;
1715;SDS011;855;48.824;9.220;2023-03-01T11:48:44;15.83;;;5.30;;
1715;SDS011;855;48.824;9.220;2023-03-01T11:51:20;13.20;;;5.50;;
1715;SDS011;855;48.824;9.220;2023-03-01T11:53:53;8.40;;;4.63;;
1715;SDS011;855;48.824;9.220;2023-03-01T11:56:28;15.07;;;5.73;;
1715;SDS011;855;48.824;9.220;2023-03-01T11:59:08;8.40;;;5.00;;
1715;SDS011;855;48.824;9.220;2023-03-01T12:01:55;14.60;;;4.97;;
1715;SDS011;855;48.824;9.220;2023-03-01T12:07:48;20.50;;;5.90;;
1715;SDS011;855;48.824;9.220;2023-03-01T12:10:22;8.73;;;3.87;;
1715;SDS011;855;48.824;9.220;2023-03-01T12:13:03;13.77;;;5.00;;
1715;SDS011;855;48.824;9.220;2023-03-01T12:15:48;10.03;;;4.93;;
1715;SDS011;855;48.824;9.220;2023-03-01T12:21:14;21.80;;;7.50;;
1715;SDS011;855;48.824;9.220;2023-03-01T12:26:54;6.97;;;4.37;;
1715;SDS011;855;48.824;9.220;2023-03-01T12:29:29;13.23;;;5.53;;
1715;SDS011;855;48.824;9.220;2023-03-01T12:32:04;11.20;;;3.67;;
1715;SDS011;855;48.824;9.220;2023-03-01T12:34:47;6.77;;;3.43;;
1715;SDS011;855;48.824;9.220;2023-03-01T12:37:33;12.17;;;4.63;;
1715;SDS011;855;48.824;9.220;2023-03-01T12:43:19;8.67;;;4.30;;
1715;SDS011;855;48.824;9.220;2023-03-01T12:46:00;13.00;;;5.67;;
1715;SDS011;855;48.824;9.220;2023-03-01T12:48:47;7.40;;;2.50;;
1715;SDS011;855;48.824;9.220;2023-03-01T12:51:20;17.90;;;6.30;;
1715;SDS011;855;48.824;9.220;2023-03-01T12:53:52;7.93;;;3.40;;
1715;SDS011;855;48.824;9.220;2023-03-01T12:56:22;5.17;;;2.97;;
1715;SDS011;855;48.824;9.220;2023-03-01T12:58:54;11.87;;;5.33;;
1715;SDS011;855;48.824;9.220;2023-03-01T13:01:33;12.70;;;5.53;;
1715;SDS011;855;48.824;9.220;2023-03-01T13:04:12;7.90;;;3.70;;
1715;SDS011;855;48.824;9.220;2023-03-01T13:06:50;11.73;;;4.80;;
1715;SDS011;855;48.824;9.220;2023-03-01T13:09:27;8.63;;;3.20;;
1715;SDS011;855;48.824;9.220;2023-03-01T13:12:01;20.47;;;6.50;;
1715;SDS011;855;48.824;9.220;2023-03-01T13:14:39;6.20;;;3.70;;
1715;SDS011;855;48.824;9.220;2023-03-01T13:17:31;7.17;;;5.03;;
1715;SDS011;855;48.824;9.220;2023-03-01T13:20:15;10.13;;;6.47;;
1715;SDS011;855;48.824;9.220;2023-03-01T13:22:43;11.57;;;4.27;;
1715;SDS011;855;48.824;9.220;2023-03-01T13:25:14;10.03;;;4.10;;
1715;SDS011;855;48.824;9.220;2023-03-01T13:27:43;16.50;;;4.80;;
1715;SDS011;855;48.824;9.220;2023-03-01T13:36:45;5.33;;;3.50;;
1715;SDS011;855;48.824;9.220;2023-03-01T13:39:26;12.80;;;5.90;;
1715;SDS011;855;48.824;9.220;2023-03-01T13:41:57;18.30;;;6.60;;
1715;SDS011;855;48.824;9.220;2023-03-01T13:44:26;6.77;;;3.80;;
1715;SDS011;855;48.824;9.220;2023-03-01T13:47:00;10.40;;;5.50;;
1715;SDS011;855;48.824;9.220;2023-03-01T13:49:41;18.27;;;6.47;;
1715;SDS011;855;48.824;9.220;2023-03-01T13:52:20;12.20;;;4.30;;
1715;SDS011;855;48.824;9.220;2023-03-01T13:54:58;13.90;;;7.17;;
1715;SDS011;855;48.824;9.220;2023-03-01T13:57:28;12.30;;;5.40;;
1715;SDS011;855;48.824;9.220;2023-03-01T14:00:00;10.40;;;6.30;;
1715;SDS011;855;48.824;9.220;2023-03-01T14:02:29;7.13;;;4.03;;
1715;SDS011;855;48.824;9.220;2023-03-01T14:04:56;12.00;;;5.80;;
1715;SDS011;855;48.824;9.220;2023-03-01T14:07:24;19.53;;;6.73;;
1715;SDS011;855;48.824;9.220;2023-03-01T14:09:54;14.90;;;5.30;;
1715;SDS011;855;48.824;9.220;2023-03-01T14:12:26;20.90;;;7.83;;
1715;SDS011;855;48.824;9.220;2023-03-01T14:15:06;11.03;;;5.20;;
1715;SDS011;855;48.824;9.220;2023-03-01T14:17:48;9.00;;;4.03;;
1715;SDS011;855;48.824;9.220;2023-03-01T14:20:21;10.37;;;6.00;;
1715;SDS011;855;48.824;9.220;2023-03-01T14:22:49;17.57;;;6.37;;
1715;SDS011;855;48.824;9.220;2023-03-01T14:25:20;8.20;;;4.87;;
1715;SDS011;855;48.824;9.220;2023-03-01T14:27:54;13.40;;;6.17;;
1715;SDS011;855;48.824;9.220;2023-03-01T14:30:27;14.80;;;6.20;;
1715;SDS011;855;48.824;9.220;2023-03-01T14:33:00;14.30;;;4.63;;
1715;SDS011;855;48.824;9.220;2023-03-01T14:35:28;20.40;;;6.33;;
1715;SDS011;855;48.824;9.220;2023-03-01T14:37:57;13.80;;;5.60;;
1715;SDS011;855;48.824;9.220;2023-03-01T14:40:25;14.97;;;5.87;;
1715;SDS011;855;48.824;9.220;2023-03-01T14:42:56;13.77;;;6.20;;
1715;SDS011;855;48.824;9.220;2023-03-01T14:45:26;9.13;;;5.03;;
1715;SDS011;855;48.824;9.220;2023-03-01T14:47:55;3.83;;;2.80;;
1715;SDS011;855;48.824;9.220;2023-03-01T14:50:28;10.60;;;5.20;;
1715;SDS011;855;48.824;9.220;2023-03-01T14:52:57;8.90;;;3.80;;
1715;SDS011;855;48.824;9.220;2023-03-01T14:55:28;14.37;;;6.00;;
1715;SDS011;855;48.824;9.220;2023-03-01T14:57:59;13.33;;;4.53;;
1715;SDS011;855;48.824;9.220;2023-03-01T15:00:30;18.90;;;7.00;;
1715;SDS011;855;48.824;9.220;2023-03-01T15:03:02;9.00;;;4.50;;
1715;SDS011;855;48.824;9.220;2023-03-01T15:05:38;11.83;;;6.90;;
1715;SDS011;855;48.824;9.220;2023-03-01T15:08:06;19.33;;;5.90;;
1715;SDS011;855;48.824;9.220;2023-03-01T15:10:54;7.47;;;4.60;;
1715;SDS011;855;48.824;9.220;2023-03-01T15:13:23;12.30;;;4.27;;
1715;SDS011;855;48.824;9.220;2023-03-01T15:15:52;16.97;;;6.30;;
1715;SDS011;855;48.824;9.220;2023-03-01T15:18:28;13.17;;;5.77;;
1715;SDS011;855;48.824;9.220;2023-03-01T15:20:56;13.13;;;4.90;;
1715;SDS011;855;48.824;9.220;2023-03-01T15:23:32;14.57;;;5.50;;
1715;SDS011;855;48.824;9.220;2023-03-01T15:26:02;13.57;;;4.07;;
1715;SDS011;855;48.824;9.220;2023-03-01T15:28:30;17.83;;;6.40;;
1715;SDS011;855;48.824;9.220;2023-03-01T15:31:00;21.10;;;6.03;;
1715;SDS011;855;48.824;9.220;2023-03-01T15:33:32;16.70;;;6.00;;
1715;SDS011;855;48.824;9.220;2023-03-01T15:36:03;9.53;;;4.17;;
1715;SDS011;855;48.824;9.220;2023-03-01T15:38:52;17.57;;;7.90;;
1715;SDS011;855;48.824;9.220;2023-03-01T15:41:24;14.53;;;6.10;;
1715;SDS011;855;48.824;9.220;2023-03-01T15:43:53;15.77;;;6.13;;
1715;SDS011;855;48.824;9.220;2023-03-01T15:46:25;13.43;;;5.80;;
1715;SDS011;855;48.824;9.220;2023-03-01T15:48:56;14.63;;;5.87;;
1715;SDS011;855;48.824;9.220;2023-03-01T15:51:32;18.97;;;5.80;;
1715;SDS011;855;48.824;9.220;2023-03-01T15:54:02;19.80;;;4.80;;
1715;SDS011;855;48.824;9.220;2023-03-01T15:56:31;13.13;;;6.10;;